sensor_id;sensor_type;location;lat;lon;timestamp;temperature;humidity
4828;DHT22;2428;48.732;9.148;2023-04-15T00:01:57;5.30;99.90
4828;DHT22;2428;48.732;9.148;2023-04-15T00:04:24;5.30;99.90
4828;DHT22;2428;48.732;9.148;2023-04-15T00:06:52;5.30;99.90
4828;DHT22;2428;48.732;9.148;2023-04-15T00:09:19;5.30;99.90
4828;DHT22;2428;48.732;9.148;2023-04-15T00:11:45;5.30;99.90
4828;DHT22;2428;48.732;9.148;2023-04-15T00:14:12;5.30;99.90
4828;DHT22;2428;48.732;9.148;2023-04-15T00:16:38;5.30;99.90
4828;DHT22;2428;48.732;9.148;2023-04-15T00:19:03;5.30;99.90
4828;DHT22;2428;48.732;9.148;2023-04-15T00:21:29;5.20;99.90
4828;DHT22;2428;48.732;9.148;2023-04-15T00:23:55;5.20;99.90
4828;DHT22;2428;48.732;9.148;2023-04-15T00:26:21;5.20;99.90
4828;DHT22;2428;48.732;9.148;2023-04-15T00:28:46;5.20;99.90
4828;DHT22;2428;48.732;9.148;2023-04-15T00:31:12;5.10;99.90
4828;DHT22;2428;48.732;9.148;2023-04-15T00:33:37;5.10;99.90
4828;DHT22;2428;48.732;9.148;2023-04-15T00:36:05;5.10;99.90
4828;DHT22;2428;48.732;9.148;2023-04-15T00:38:30;5.10;99.90
4828;DHT22;2428;48.732;9.148;2023-04-15T00:40:56;5.10;99.90
4828;DHT22;2428;48.732;9.148;2023-04-15T00:43:21;5.00;99.90
4828;DHT22;2428;48.732;9.148;2023-04-15T00:45:47;5.00;99.90
4828;DHT22;2428;48.732;9.148;2023-04-15T00:48:13;5.00;99.90
4828;DHT22;2428;48.732;9.148;2023-04-15T00:50:39;5.00;99.90
4828;DHT22;2428;48.732;9.148;2023-04-15T00:53:05;5.00;99.90
4828;DHT22;2428;48.732;9.148;2023-04-15T00:55:31;5.00;99.90
4828;DHT22;2428;48.732;9.148;2023-04-15T00:57:57;5.00;99.90
4828;DHT22;2428;48.732;9.148;2023-04-15T01:00:22;5.00;99.90
4828;DHT22;2428;48.732;9.148;2023-04-15T01:02:48;5.00;99.90
4828;DHT22;2428;48.732;9.148;2023-04-15T01:05:15;4.90;99.90
4828;DHT22;2428;48.732;9.148;2023-04-15T01:07:42;4.90;99.90
4828;DHT22;2428;48.732;9.148;2023-04-15T01:10:08;4.90;99.90
4828;DHT22;2428;48.732;9.148;2023-04-15T01:12:34;4.80;99.90
4828;DHT22;2428;48.732;9.148;2023-04-15T01:15:02;4.90;99.90
4828;DHT22;2428;48.732;9.148;2023-04-15T01:17:28;4.80;99.90
4828;DHT22;2428;48.732;9.148;2023-04-15T01:19:55;4.80;99.90
4828;DHT22;2428;48.732;9.148;2023-04-15T01:22:23;4.80;99.90
4828;DHT22;2428;48.732;9.148;2023-04-15T01:24:57;4.70;99.90
4828;DHT22;2428;48.732;9.148;2023-04-15T01:27:26;4.70;99.90
4828;DHT22;2428;48.732;9.148;2023-04-15T01:29:52;4.70;99.90
4828;DHT22;2428;48.732;9.148;2023-04-15T01:32:18;4.70;99.90
4828;DHT22;2428;48.732;9.148;2023-04-15T01:34:44;4.70;99.90
4828;DHT22;2428;48.732;9.148;2023-04-15T01:37:10;4.70;99.90
4828;DHT22;2428;48.732;9.148;2023-04-15T01:39:36;4.70;99.90
4828;DHT22;2428;48.732;9.148;2023-04-15T01:42:01;4.70;99.90
4828;DHT22;2428;48.732;9.148;2023-04-15T01:44:27;4.70;99.90
4828;DHT22;2428;48.732;9.148;2023-04-15T01:46:53;4.70;99.90
4828;DHT22;2428;48.732;9.148;2023-04-15T01:49:18;4.70;99.90
4828;DHT22;2428;48.732;9.148;2023-04-15T01:51:44;4.80;99.90
4828;DHT22;2428;48.732;9.148;2023-04-15T01:54:09;4.80;99.90
4828;DHT22;2428;48.732;9.148;2023-04-15T01:56:35;4.70;99.90
4828;DHT22;2428;48.732;9.148;2023-04-15T01:59:01;4.70;99.90
4828;DHT22;2428;48.732;9.148;2023-04-15T02:01:28;4.70;99.90
4828;DHT22;2428;48.732;9.148;2023-04-15T02:03:53;4.70;99.90
4828;DHT22;2428;48.732;9.148;2023-04-15T02:06:19;4.60;99.90
4828;DHT22;2428;48.732;9.148;2023-04-15T02:08:45;4.60;99.90
4828;DHT22;2428;48.732;9.148;2023-04-15T02:11:10;4.60;99.90
4828;DHT22;2428;48.732;9.148;2023-04-15T02:13:36;4.50;99.90
4828;DHT22;2428;48.732;9.148;2023-04-15T02:16:02;4.50;99.90
4828;DHT22;2428;48.732;9.148;2023-04-15T02:18:28;4.50;99.90
4828;DHT22;2428;48.732;9.148;2023-04-15T02:20:53;4.40;99.90
4828;DHT22;2428;48.732;9.148;2023-04-15T02:23:21;4.50;99.90
4828;DHT22;2428;48.732;9.148;2023-04-15T02:25:47;4.40;99.90
4828;DHT22;2428;48.732;9.148;2023-04-15T02:28:12;4.50;99.90
4828;DHT22;2428;48.732;9.148;2023-04-15T02:30:38;4.50;99.90
4828;DHT22;2428;48.732;9.148;2023-04-15T02:33:05;4.60;99.90
4828;DHT22;2428;48.732;9.148;2023-04-15T02:35:31;4.60;99.90
4828;DHT22;2428;48.732;9.148;2023-04-15T02:37:57;4.70;99.90
4828;DHT22;2428;48.732;9.148;2023-04-15T02:40:22;4.70;99.90
4828;DHT22;2428;48.732;9.148;2023-04-15T02:42:48;4.60;99.90
4828;DHT22;2428;48.732;9.148;2023-04-15T02:45:14;4.60;99.90
4828;DHT22;2428;48.732;9.148;2023-04-15T02:47:39;4.60;99.90
4828;DHT22;2428;48.732;9.148;2023-04-15T02:50:09;4.50;99.90
4828;DHT22;2428;48.732;9.148;2023-04-15T02:52:38;4.40;99.90
4828;DHT22;2428;48.732;9.148;2023-04-15T02:55:04;4.40;99.90
4828;DHT22;2428;48.732;9.148;2023-04-15T02:57:30;4.30;99.90
4828;DHT22;2428;48.732;9.148;2023-04-15T02:59:56;4.30;99.90
4828;DHT22;2428;48.732;9.148;2023-04-15T03:02:21;4.30;99.90
4828;DHT22;2428;48.732;9.148;2023-04-15T03:04:47;4.30;99.90
4828;DHT22;2428;48.732;9.148;2023-04-15T03:07:13;4.30;99.90
4828;DHT22;2428;48.732;9.148;2023-04-15T03:09:38;4.30;99.90
4828;DHT22;2428;48.732;9.148;2023-04-15T03:12:05;4.20;99.90
4828;DHT22;2428;48.732;9.148;2023-04-15T03:14:31;4.20;99.90
4828;DHT22;2428;48.732;9.148;2023-04-15T03:16:57;4.20;99.90
4828;DHT22;2428;48.732;9.148;2023-04-15T03:19:24;4.10;99.90
4828;DHT22;2428;48.732;9.148;2023-04-15T03:21:49;4.20;99.90
4828;DHT22;2428;48.732;9.148;2023-04-15T03:24:16;4.10;99.90
4828;DHT22;2428;48.732;9.148;2023-04-15T03:26:42;4.00;99.90
4828;DHT22;2428;48.732;9.148;2023-04-15T03:29:07;3.90;99.90
4828;DHT22;2428;48.732;9.148;2023-04-15T03:31:33;3.90;99.90
4828;DHT22;2428;48.732;9.148;2023-04-15T03:33:58;3.90;99.90
4828;DHT22;2428;48.732;9.148;2023-04-15T03:36:24;4.00;99.90
4828;DHT22;2428;48.732;9.148;2023-04-15T03:38:50;4.00;99.90
4828;DHT22;2428;48.732;9.148;2023-04-15T03:41:16;4.00;99.90
4828;DHT22;2428;48.732;9.148;2023-04-15T03:43:41;3.90;99.90
4828;DHT22;2428;48.732;9.148;2023-04-15T03:46:07;3.90;99.90
4828;DHT22;2428;48.732;9.148;2023-04-15T03:48:32;4.00;99.90
4828;DHT22;2428;48.732;9.148;2023-04-15T03:50:58;4.00;99.90
4828;DHT22;2428;48.732;9.148;2023-04-15T03:53:23;3.90;99.90
4828;DHT22;2428;48.732;9.148;2023-04-15T03:55:49;3.90;99.90
4828;DHT22;2428;48.732;9.148;2023-04-15T03:58:15;3.90;99.90
4828;DHT22;2428;48.732;9.148;2023-04-15T04:00:40;3.90;99.90
4828;DHT22;2428;48.732;9.148;2023-04-15T04:03:06;3.80;99.90
4828;DHT22;2428;48.732;9.148;2023-04-15T04:05:32;3.90;99.90
4828;DHT22;2428;48.732;9.148;2023-04-15T04:07:58;3.90;99.90
4828;DHT22;2428;48.732;9.148;2023-04-15T04:10:23;3.90;99.90
4828;DHT22;2428;48.732;9.148;2023-04-15T04:12:49;3.90;99.90
4828;DHT22;2428;48.732;9.148;2023-04-15T04:15:14;3.80;99.90
4828;DHT22;2428;48.732;9.148;2023-04-15T04:17:40;3.80;99.90
4828;DHT22;2428;48.732;9.148;2023-04-15T04:20:07;3.80;99.90
4828;DHT22;2428;48.732;9.148;2023-04-15T04:22:40;3.80;99.90
4828;DHT22;2428;48.732;9.148;2023-04-15T04:25:06;3.90;99.90
4828;DHT22;2428;48.732;9.148;2023-04-15T04:27:33;3.90;99.90
4828;DHT22;2428;48.732;9.148;2023-04-15T04:29:58;3.90;99.90
4828;DHT22;2428;48.732;9.148;2023-04-15T04:32:24;3.80;99.90
4828;DHT22;2428;48.732;9.148;2023-04-15T04:34:50;3.80;99.90
4828;DHT22;2428;48.732;9.148;2023-04-15T04:37:15;3.80;99.90
4828;DHT22;2428;48.732;9.148;2023-04-15T04:39:41;3.80;99.90
4828;DHT22;2428;48.732;9.148;2023-04-15T04:42:06;3.70;99.90
4828;DHT22;2428;48.732;9.148;2023-04-15T04:44:32;3.70;99.90
4828;DHT22;2428;48.732;9.148;2023-04-15T04:46:58;3.70;99.90
4828;DHT22;2428;48.732;9.148;2023-04-15T04:49:23;3.70;99.90
4828;DHT22;2428;48.732;9.148;2023-04-15T04:51:49;3.70;99.90
4828;DHT22;2428;48.732;9.148;2023-04-15T04:54:15;3.80;99.90
4828;DHT22;2428;48.732;9.148;2023-04-15T04:56:41;3.80;99.90
4828;DHT22;2428;48.732;9.148;2023-04-15T04:59:06;3.80;99.90
4828;DHT22;2428;48.732;9.148;2023-04-15T05:01:32;3.80;99.90
4828;DHT22;2428;48.732;9.148;2023-04-15T05:03:58;3.80;99.90
4828;DHT22;2428;48.732;9.148;2023-04-15T05:06:24;3.90;99.90
4828;DHT22;2428;48.732;9.148;2023-04-15T05:08:50;3.90;99.90
4828;DHT22;2428;48.732;9.148;2023-04-15T05:11:16;3.90;99.90
4828;DHT22;2428;48.732;9.148;2023-04-15T05:13:41;3.90;99.90
4828;DHT22;2428;48.732;9.148;2023-04-15T05:16:07;3.90;99.90
4828;DHT22;2428;48.732;9.148;2023-04-15T05:18:33;4.00;99.90
4828;DHT22;2428;48.732;9.148;2023-04-15T05:20:59;4.00;99.90
4828;DHT22;2428;48.732;9.148;2023-04-15T05:23:25;4.00;99.90
4828;DHT22;2428;48.732;9.148;2023-04-15T05:25:50;4.10;99.90
4828;DHT22;2428;48.732;9.148;2023-04-15T05:28:16;4.10;99.90
4828;DHT22;2428;48.732;9.148;2023-04-15T05:30:42;4.10;99.90
4828;DHT22;2428;48.732;9.148;2023-04-15T05:33:07;4.10;99.90
4828;DHT22;2428;48.732;9.148;2023-04-15T05:35:33;4.20;99.90
4828;DHT22;2428;48.732;9.148;2023-04-15T05:37:59;4.20;99.90
4828;DHT22;2428;48.732;9.148;2023-04-15T05:40:24;4.20;99.90
4828;DHT22;2428;48.732;9.148;2023-04-15T05:42:50;4.30;99.90
4828;DHT22;2428;48.732;9.148;2023-04-15T05:45:16;4.30;99.90
4828;DHT22;2428;48.732;9.148;2023-04-15T05:47:42;4.30;99.90
4828;DHT22;2428;48.732;9.148;2023-04-15T05:50:07;4.40;99.90
4828;DHT22;2428;48.732;9.148;2023-04-15T05:52:33;4.40;99.90
4828;DHT22;2428;48.732;9.148;2023-04-15T05:54:59;4.50;99.90
4828;DHT22;2428;48.732;9.148;2023-04-15T05:57:24;4.60;99.90
4828;DHT22;2428;48.732;9.148;2023-04-15T05:59:50;4.60;99.90
4828;DHT22;2428;48.732;9.148;2023-04-15T06:02:17;4.70;99.90
4828;DHT22;2428;48.732;9.148;2023-04-15T06:04:42;4.60;99.90
4828;DHT22;2428;48.732;9.148;2023-04-15T06:07:08;4.70;99.90
4828;DHT22;2428;48.732;9.148;2023-04-15T06:09:34;4.80;99.90
4828;DHT22;2428;48.732;9.148;2023-04-15T06:12:00;4.90;99.90
4828;DHT22;2428;48.732;9.148;2023-04-15T06:14:26;5.00;99.90
4828;DHT22;2428;48.732;9.148;2023-04-15T06:16:52;5.10;99.90
4828;DHT22;2428;48.732;9.148;2023-04-15T06:19:17;5.20;99.90
4828;DHT22;2428;48.732;9.148;2023-04-15T06:21:43;5.30;99.90
4828;DHT22;2428;48.732;9.148;2023-04-15T06:24:10;5.40;99.90
4828;DHT22;2428;48.732;9.148;2023-04-15T06:26:35;5.50;99.90
4828;DHT22;2428;48.732;9.148;2023-04-15T06:29:01;5.60;99.90
4828;DHT22;2428;48.732;9.148;2023-04-15T06:31:26;5.80;99.90
4828;DHT22;2428;48.732;9.148;2023-04-15T06:33:52;5.90;99.90
4828;DHT22;2428;48.732;9.148;2023-04-15T06:36:18;5.90;99.90
4828;DHT22;2428;48.732;9.148;2023-04-15T06:38:43;6.00;99.90
4828;DHT22;2428;48.732;9.148;2023-04-15T06:41:09;6.00;99.90
4828;DHT22;2428;48.732;9.148;2023-04-15T06:43:35;6.20;99.90
4828;DHT22;2428;48.732;9.148;2023-04-15T06:46:00;6.30;99.90
4828;DHT22;2428;48.732;9.148;2023-04-15T06:48:26;6.50;99.90
4828;DHT22;2428;48.732;9.148;2023-04-15T06:50:52;6.60;99.90
4828;DHT22;2428;48.732;9.148;2023-04-15T06:53:18;6.80;99.90
4828;DHT22;2428;48.732;9.148;2023-04-15T06:55:43;6.90;99.90
4828;DHT22;2428;48.732;9.148;2023-04-15T06:58:09;7.00;99.90
4828;DHT22;2428;48.732;9.148;2023-04-15T07:00:35;7.20;99.90
4828;DHT22;2428;48.732;9.148;2023-04-15T07:03:03;7.30;99.90
4828;DHT22;2428;48.732;9.148;2023-04-15T07:05:29;7.30;99.90
4828;DHT22;2428;48.732;9.148;2023-04-15T07:07:55;7.50;99.90
4828;DHT22;2428;48.732;9.148;2023-04-15T07:10:21;7.60;99.90
4828;DHT22;2428;48.732;9.148;2023-04-15T07:12:47;7.70;99.90
4828;DHT22;2428;48.732;9.148;2023-04-15T07:15:13;7.70;99.90
4828;DHT22;2428;48.732;9.148;2023-04-15T07:17:40;7.80;99.90
4828;DHT22;2428;48.732;9.148;2023-04-15T07:20:06;7.80;99.90
4828;DHT22;2428;48.732;9.148;2023-04-15T07:22:32;7.90;99.90
4828;DHT22;2428;48.732;9.148;2023-04-15T07:24:58;8.00;99.90
4828;DHT22;2428;48.732;9.148;2023-04-15T07:27:24;8.00;99.90
4828;DHT22;2428;48.732;9.148;2023-04-15T07:29:50;8.10;99.90
4828;DHT22;2428;48.732;9.148;2023-04-15T07:32:16;8.20;99.90
4828;DHT22;2428;48.732;9.148;2023-04-15T07:34:42;8.20;99.90
4828;DHT22;2428;48.732;9.148;2023-04-15T07:37:08;8.30;99.90
4828;DHT22;2428;48.732;9.148;2023-04-15T07:39:34;8.40;99.90
4828;DHT22;2428;48.732;9.148;2023-04-15T07:42:00;8.50;99.90
4828;DHT22;2428;48.732;9.148;2023-04-15T07:44:26;8.50;99.90
4828;DHT22;2428;48.732;9.148;2023-04-15T07:46:52;8.70;99.90
4828;DHT22;2428;48.732;9.148;2023-04-15T07:49:18;8.90;99.90
4828;DHT22;2428;48.732;9.148;2023-04-15T07:51:45;9.10;99.90
4828;DHT22;2428;48.732;9.148;2023-04-15T07:54:11;9.20;99.90
4828;DHT22;2428;48.732;9.148;2023-04-15T07:56:37;9.20;99.90
4828;DHT22;2428;48.732;9.148;2023-04-15T07:59:02;9.30;99.90
4828;DHT22;2428;48.732;9.148;2023-04-15T08:01:29;9.30;99.90
4828;DHT22;2428;48.732;9.148;2023-04-15T08:03:55;9.40;99.90
4828;DHT22;2428;48.732;9.148;2023-04-15T08:06:22;9.60;99.90
4828;DHT22;2428;48.732;9.148;2023-04-15T08:08:47;9.60;99.90
4828;DHT22;2428;48.732;9.148;2023-04-15T08:11:13;9.60;99.90
4828;DHT22;2428;48.732;9.148;2023-04-15T08:13:39;9.60;99.90
4828;DHT22;2428;48.732;9.148;2023-04-15T08:16:17;9.70;99.90
4828;DHT22;2428;48.732;9.148;2023-04-15T08:18:44;9.80;99.90
4828;DHT22;2428;48.732;9.148;2023-04-15T08:21:10;10.00;99.90
4828;DHT22;2428;48.732;9.148;2023-04-15T08:23:36;10.10;99.90
4828;DHT22;2428;48.732;9.148;2023-04-15T08:26:02;10.30;99.90
4828;DHT22;2428;48.732;9.148;2023-04-15T08:28:27;10.30;99.90
4828;DHT22;2428;48.732;9.148;2023-04-15T08:30:53;10.40;99.90
4828;DHT22;2428;48.732;9.148;2023-04-15T08:33:19;10.50;99.90
4828;DHT22;2428;48.732;9.148;2023-04-15T08:35:45;10.60;99.90
4828;DHT22;2428;48.732;9.148;2023-04-15T08:38:11;10.70;99.90
4828;DHT22;2428;48.732;9.148;2023-04-15T08:40:42;10.80;99.90
4828;DHT22;2428;48.732;9.148;2023-04-15T08:43:17;10.70;99.90
4828;DHT22;2428;48.732;9.148;2023-04-15T08:45:43;10.90;99.90
4828;DHT22;2428;48.732;9.148;2023-04-15T08:48:16;10.90;99.90
4828;DHT22;2428;48.732;9.148;2023-04-15T08:50:42;10.80;99.90
4828;DHT22;2428;48.732;9.148;2023-04-15T08:53:10;11.00;99.90
4828;DHT22;2428;48.732;9.148;2023-04-15T08:55:43;11.20;99.90
4828;DHT22;2428;48.732;9.148;2023-04-15T08:58:10;11.40;99.90
4828;DHT22;2428;48.732;9.148;2023-04-15T09:00:36;11.50;99.90
4828;DHT22;2428;48.732;9.148;2023-04-15T09:03:04;11.60;99.90
4828;DHT22;2428;48.732;9.148;2023-04-15T09:05:40;11.70;99.90
4828;DHT22;2428;48.732;9.148;2023-04-15T09:08:06;11.90;99.90
4828;DHT22;2428;48.732;9.148;2023-04-15T09:10:33;12.00;99.90
4828;DHT22;2428;48.732;9.148;2023-04-15T09:13:00;12.20;99.90
4828;DHT22;2428;48.732;9.148;2023-04-15T09:15:26;12.40;99.90
4828;DHT22;2428;48.732;9.148;2023-04-15T09:17:53;12.50;99.90
4828;DHT22;2428;48.732;9.148;2023-04-15T09:20:19;12.60;99.90
4828;DHT22;2428;48.732;9.148;2023-04-15T09:22:48;12.60;99.90
4828;DHT22;2428;48.732;9.148;2023-04-15T09:27:48;12.80;99.90
4828;DHT22;2428;48.732;9.148;2023-04-15T09:30:14;12.90;99.90
4828;DHT22;2428;48.732;9.148;2023-04-15T09:32:57;13.00;99.90
4828;DHT22;2428;48.732;9.148;2023-04-15T09:35:24;13.00;99.90
4828;DHT22;2428;48.732;9.148;2023-04-15T09:37:50;13.10;99.90
4828;DHT22;2428;48.732;9.148;2023-04-15T09:40:39;12.70;99.90
4828;DHT22;2428;48.732;9.148;2023-04-15T09:43:07;12.80;99.90
4828;DHT22;2428;48.732;9.148;2023-04-15T09:45:35;12.90;99.90
4828;DHT22;2428;48.732;9.148;2023-04-15T09:48:21;13.10;99.90
4828;DHT22;2428;48.732;9.148;2023-04-15T09:50:48;13.30;99.90
4828;DHT22;2428;48.732;9.148;2023-04-15T09:53:18;13.50;99.90
4828;DHT22;2428;48.732;9.148;2023-04-15T09:55:48;13.40;99.90
4828;DHT22;2428;48.732;9.148;2023-04-15T09:58:24;13.50;99.90
4828;DHT22;2428;48.732;9.148;2023-04-15T10:00:51;13.40;99.90
4828;DHT22;2428;48.732;9.148;2023-04-15T10:03:22;13.20;99.90
4828;DHT22;2428;48.732;9.148;2023-04-15T10:05:50;13.30;99.90
4828;DHT22;2428;48.732;9.148;2023-04-15T10:08:18;13.30;99.90
4828;DHT22;2428;48.732;9.148;2023-04-15T10:10:46;13.30;99.90
4828;DHT22;2428;48.732;9.148;2023-04-15T10:13:13;12.90;99.90
4828;DHT22;2428;48.732;9.148;2023-04-15T10:15:43;12.80;99.90
4828;DHT22;2428;48.732;9.148;2023-04-15T10:18:14;12.80;99.90
4828;DHT22;2428;48.732;9.148;2023-04-15T10:20:40;12.60;99.90
4828;DHT22;2428;48.732;9.148;2023-04-15T10:23:07;12.60;99.90
4828;DHT22;2428;48.732;9.148;2023-04-15T10:25:34;12.90;99.90
4828;DHT22;2428;48.732;9.148;2023-04-15T10:28:00;13.30;99.90
4828;DHT22;2428;48.732;9.148;2023-04-15T10:30:27;13.40;99.90
4828;DHT22;2428;48.732;9.148;2023-04-15T10:32:53;13.40;99.90
4828;DHT22;2428;48.732;9.148;2023-04-15T10:35:20;13.30;99.90
4828;DHT22;2428;48.732;9.148;2023-04-15T10:37:46;13.20;99.90
4828;DHT22;2428;48.732;9.148;2023-04-15T10:40:25;13.20;99.90
4828;DHT22;2428;48.732;9.148;2023-04-15T10:42:56;13.70;99.90
4828;DHT22;2428;48.732;9.148;2023-04-15T10:45:25;14.30;99.90
4828;DHT22;2428;48.732;9.148;2023-04-15T10:47:54;14.60;99.90
4828;DHT22;2428;48.732;9.148;2023-04-15T10:50:20;14.70;99.90
4828;DHT22;2428;48.732;9.148;2023-04-15T10:52:50;14.80;99.90
4828;DHT22;2428;48.732;9.148;2023-04-15T10:55:24;15.10;99.90
4828;DHT22;2428;48.732;9.148;2023-04-15T10:57:57;15.50;99.90
4828;DHT22;2428;48.732;9.148;2023-04-15T11:00:28;15.90;99.90
4828;DHT22;2428;48.732;9.148;2023-04-15T11:03:14;17.10;99.90
4828;DHT22;2428;48.732;9.148;2023-04-15T11:08:10;17.60;99.90
4828;DHT22;2428;48.732;9.148;2023-04-15T11:13:13;15.70;99.90
4828;DHT22;2428;48.732;9.148;2023-04-15T11:15:44;15.10;99.90
4828;DHT22;2428;48.732;9.148;2023-04-15T11:20:43;14.10;99.90
4828;DHT22;2428;48.732;9.148;2023-04-15T11:23:10;13.70;99.90
4828;DHT22;2428;48.732;9.148;2023-04-15T11:25:36;13.50;99.90
4828;DHT22;2428;48.732;9.148;2023-04-15T11:28:02;13.10;99.90
4828;DHT22;2428;48.732;9.148;2023-04-15T11:30:30;12.90;99.90
4828;DHT22;2428;48.732;9.148;2023-04-15T11:32:59;13.00;99.90
4828;DHT22;2428;48.732;9.148;2023-04-15T11:35:25;13.70;99.90
4828;DHT22;2428;48.732;9.148;2023-04-15T11:37:51;14.90;99.90
4828;DHT22;2428;48.732;9.148;2023-04-15T11:40:25;16.10;99.90
4828;DHT22;2428;48.732;9.148;2023-04-15T11:43:07;16.60;99.90
4828;DHT22;2428;48.732;9.148;2023-04-15T11:45:34;16.90;99.90
4828;DHT22;2428;48.732;9.148;2023-04-15T11:48:10;16.80;99.90
4828;DHT22;2428;48.732;9.148;2023-04-15T11:50:37;16.20;99.90
4828;DHT22;2428;48.732;9.148;2023-04-15T11:53:10;15.40;99.90
4828;DHT22;2428;48.732;9.148;2023-04-15T11:55:47;14.70;99.90
4828;DHT22;2428;48.732;9.148;2023-04-15T12:00:41;14.20;99.90
4828;DHT22;2428;48.732;9.148;2023-04-15T12:03:16;13.90;99.90
4828;DHT22;2428;48.732;9.148;2023-04-15T12:09:02;13.00;99.90
4828;DHT22;2428;48.732;9.148;2023-04-15T12:11:34;12.90;99.90
4828;DHT22;2428;48.732;9.148;2023-04-15T12:14:21;13.00;99.90
4828;DHT22;2428;48.732;9.148;2023-04-15T12:16:49;13.30;99.90
4828;DHT22;2428;48.732;9.148;2023-04-15T12:19:18;13.50;99.90
4828;DHT22;2428;48.732;9.148;2023-04-15T12:21:45;13.90;99.90
4828;DHT22;2428;48.732;9.148;2023-04-15T12:24:12;14.10;99.90
4828;DHT22;2428;48.732;9.148;2023-04-15T12:26:47;14.20;99.90
4828;DHT22;2428;48.732;9.148;2023-04-15T12:29:13;14.20;99.90
4828;DHT22;2428;48.732;9.148;2023-04-15T12:31:54;14.10;99.90
4828;DHT22;2428;48.732;9.148;2023-04-15T12:34:28;14.00;99.90
4828;DHT22;2428;48.732;9.148;2023-04-15T12:36:55;13.90;99.90
4828;DHT22;2428;48.732;9.148;2023-04-15T12:39:23;13.70;99.90
4828;DHT22;2428;48.732;9.148;2023-04-15T12:41:49;13.40;99.90
4828;DHT22;2428;48.732;9.148;2023-04-15T12:44:15;13.20;99.90
4828;DHT22;2428;48.732;9.148;2023-04-15T12:46:41;13.10;99.90
4828;DHT22;2428;48.732;9.148;2023-04-15T12:49:08;12.80;99.90
4828;DHT22;2428;48.732;9.148;2023-04-15T12:51:33;12.70;99.90
4828;DHT22;2428;48.732;9.148;2023-04-15T12:53:59;12.40;99.90
4828;DHT22;2428;48.732;9.148;2023-04-15T12:56:25;12.10;99.90
4828;DHT22;2428;48.732;9.148;2023-04-15T12:58:51;12.00;99.90
4828;DHT22;2428;48.732;9.148;2023-04-15T13:01:16;12.00;99.90
4828;DHT22;2428;48.732;9.148;2023-04-15T13:03:43;11.80;99.90
4828;DHT22;2428;48.732;9.148;2023-04-15T13:06:08;11.70;99.90
4828;DHT22;2428;48.732;9.148;2023-04-15T13:08:34;11.70;99.90
4828;DHT22;2428;48.732;9.148;2023-04-15T13:10:59;11.80;99.90
4828;DHT22;2428;48.732;9.148;2023-04-15T13:13:25;11.70;99.90
4828;DHT22;2428;48.732;9.148;2023-04-15T13:15:51;11.70;99.90
4828;DHT22;2428;48.732;9.148;2023-04-15T13:18:17;11.80;99.90
4828;DHT22;2428;48.732;9.148;2023-04-15T13:20:43;11.80;99.90
4828;DHT22;2428;48.732;9.148;2023-04-15T13:23:08;11.80;99.90
4828;DHT22;2428;48.732;9.148;2023-04-15T13:25:34;11.80;99.90
4828;DHT22;2428;48.732;9.148;2023-04-15T13:27:59;11.70;99.90
4828;DHT22;2428;48.732;9.148;2023-04-15T13:30:26;11.70;99.90
4828;DHT22;2428;48.732;9.148;2023-04-15T13:32:52;11.60;99.90
4828;DHT22;2428;48.732;9.148;2023-04-15T13:35:18;11.80;99.90
4828;DHT22;2428;48.732;9.148;2023-04-15T13:37:44;11.80;99.90
4828;DHT22;2428;48.732;9.148;2023-04-15T13:40:10;11.80;99.90
4828;DHT22;2428;48.732;9.148;2023-04-15T13:42:36;11.80;99.90
4828;DHT22;2428;48.732;9.148;2023-04-15T13:45:01;11.80;99.90
4828;DHT22;2428;48.732;9.148;2023-04-15T13:47:27;11.80;99.90
4828;DHT22;2428;48.732;9.148;2023-04-15T13:49:53;11.80;99.90
4828;DHT22;2428;48.732;9.148;2023-04-15T13:52:21;11.80;99.90
4828;DHT22;2428;48.732;9.148;2023-04-15T13:54:46;11.80;99.90
4828;DHT22;2428;48.732;9.148;2023-04-15T13:57:12;11.90;99.90
4828;DHT22;2428;48.732;9.148;2023-04-15T13:59:38;12.00;99.90
4828;DHT22;2428;48.732;9.148;2023-04-15T14:02:03;12.00;99.90
4828;DHT22;2428;48.732;9.148;2023-04-15T14:04:30;11.90;99.90
4828;DHT22;2428;48.732;9.148;2023-04-15T14:06:56;11.90;99.90
4828;DHT22;2428;48.732;9.148;2023-04-15T14:09:22;12.10;99.90
4828;DHT22;2428;48.732;9.148;2023-04-15T14:11:49;12.20;99.90
4828;DHT22;2428;48.732;9.148;2023-04-15T14:14:14;12.10;99.90
4828;DHT22;2428;48.732;9.148;2023-04-15T14:16:40;12.00;99.90
4828;DHT22;2428;48.732;9.148;2023-04-15T14:19:06;11.80;99.90
4828;DHT22;2428;48.732;9.148;2023-04-15T14:21:31;11.60;99.90
4828;DHT22;2428;48.732;9.148;2023-04-15T14:23:58;11.60;99.90
4828;DHT22;2428;48.732;9.148;2023-04-15T14:26:24;11.50;99.90
4828;DHT22;2428;48.732;9.148;2023-04-15T14:28:50;11.40;99.90
4828;DHT22;2428;48.732;9.148;2023-04-15T14:31:15;11.40;99.90
4828;DHT22;2428;48.732;9.148;2023-04-15T14:33:41;11.30;99.90
4828;DHT22;2428;48.732;9.148;2023-04-15T14:36:08;11.20;99.90
4828;DHT22;2428;48.732;9.148;2023-04-15T14:38:36;11.20;99.90
4828;DHT22;2428;48.732;9.148;2023-04-15T14:41:06;11.10;99.90
4828;DHT22;2428;48.732;9.148;2023-04-15T14:43:32;11.10;99.90
4828;DHT22;2428;48.732;9.148;2023-04-15T14:45:58;11.00;99.90
4828;DHT22;2428;48.732;9.148;2023-04-15T14:48:24;11.10;99.90
4828;DHT22;2428;48.732;9.148;2023-04-15T14:50:50;11.10;99.90
4828;DHT22;2428;48.732;9.148;2023-04-15T14:53:15;11.00;99.90
4828;DHT22;2428;48.732;9.148;2023-04-15T14:55:41;11.00;99.90
4828;DHT22;2428;48.732;9.148;2023-04-15T14:58:07;10.90;99.90
4828;DHT22;2428;48.732;9.148;2023-04-15T15:00:35;10.90;99.90
4828;DHT22;2428;48.732;9.148;2023-04-15T15:03:03;10.80;99.90
4828;DHT22;2428;48.732;9.148;2023-04-15T15:05:43;10.70;99.90
4828;DHT22;2428;48.732;9.148;2023-04-15T15:08:09;10.60;99.90
4828;DHT22;2428;48.732;9.148;2023-04-15T15:10:36;10.60;99.90
4828;DHT22;2428;48.732;9.148;2023-04-15T15:13:06;10.50;99.90
4828;DHT22;2428;48.732;9.148;2023-04-15T15:15:32;10.40;99.90
4828;DHT22;2428;48.732;9.148;2023-04-15T15:17:59;10.40;99.90
4828;DHT22;2428;48.732;9.148;2023-04-15T15:20:25;10.40;99.90
4828;DHT22;2428;48.732;9.148;2023-04-15T15:22:51;10.40;99.90
4828;DHT22;2428;48.732;9.148;2023-04-15T15:25:16;10.40;99.90
4828;DHT22;2428;48.732;9.148;2023-04-15T15:27:42;10.20;99.90
4828;DHT22;2428;48.732;9.148;2023-04-15T15:30:08;10.10;99.90
4828;DHT22;2428;48.732;9.148;2023-04-15T15:32:34;10.00;99.90
4828;DHT22;2428;48.732;9.148;2023-04-15T15:34:59;9.90;99.90
4828;DHT22;2428;48.732;9.148;2023-04-15T15:37:25;9.90;99.90
4828;DHT22;2428;48.732;9.148;2023-04-15T15:39:51;9.90;99.90
4828;DHT22;2428;48.732;9.148;2023-04-15T15:42:21;9.90;99.90
4828;DHT22;2428;48.732;9.148;2023-04-15T15:44:47;9.90;99.90
4828;DHT22;2428;48.732;9.148;2023-04-15T15:47:14;9.80;99.90
4828;DHT22;2428;48.732;9.148;2023-04-15T15:49:40;9.80;99.90
4828;DHT22;2428;48.732;9.148;2023-04-15T15:52:06;9.80;99.90
4828;DHT22;2428;48.732;9.148;2023-04-15T15:54:31;9.80;99.90
4828;DHT22;2428;48.732;9.148;2023-04-15T15:56:57;9.80;99.90
4828;DHT22;2428;48.732;9.148;2023-04-15T15:59:23;9.80;99.90
4828;DHT22;2428;48.732;9.148;2023-04-15T16:01:50;9.80;99.90
4828;DHT22;2428;48.732;9.148;2023-04-15T16:04:16;9.90;99.90
4828;DHT22;2428;48.732;9.148;2023-04-15T16:06:41;9.90;99.90
4828;DHT22;2428;48.732;9.148;2023-04-15T16:09:09;9.90;99.90
4828;DHT22;2428;48.732;9.148;2023-04-15T16:11:35;9.80;99.90
4828;DHT22;2428;48.732;9.148;2023-04-15T16:14:00;9.90;99.90
4828;DHT22;2428;48.732;9.148;2023-04-15T16:16:26;9.80;99.90
4828;DHT22;2428;48.732;9.148;2023-04-15T16:18:53;9.90;99.90
4828;DHT22;2428;48.732;9.148;2023-04-15T16:21:18;9.90;99.90
4828;DHT22;2428;48.732;9.148;2023-04-15T16:23:44;9.90;99.90
4828;DHT22;2428;48.732;9.148;2023-04-15T16:26:10;9.90;99.90